Time;durP1;ratioP1;P1;durP2;ratioP2;P2;SDS_P1;SDS_P2;PMS_P1;PMS_P2;Temp;Humidity;BMP_temperature;BMP_pressure;BME280_temperature;BME280_humidity;BME280_pressure;Samples;Min_cycle;Max_cycle;Signal;HPM_P1;HPM_P2
2020/12/01 00:00:22;;;;;;;;;;;;;;;;;;10498336;28;19943;-74
2020/12/01 00:05:22;;;;;;;;;;;;;;;;;;10498574;28;19955;-74
2020/12/01 00:10:23;;;;;;;;;;;;;;;;;;10494096;28;19972;-74
2020/12/01 00:15:24;;;;;;;;;;;;;;;;;;10497813;28;20340;-73
2020/12/01 00:20:25;;;;;;;;;;;;;;;;;;10497032;28;19964;-74
2020/12/01 00:25:26;;;;;;;;;;;;;;;;;;10498165;28;20442;-73
2020/12/01 00:30:27;;;;;;;;;;;;;;;;;;10497872;28;20058;-74
2020/12/01 00:35:28;;;;;;;;;;;;;;;;;;10497807;28;19913;-74
2020/12/01 00:40:29;;;;;;;;;;;;;;;;;;10497212;28;20304;-74
2020/12/01 00:45:30;;;;;;;;;;;;;;;;;;10497083;28;19947;-73
2020/12/01 00:50:31;;;;;;;;;;;;;;;;;;10497258;28;19974;-73
2020/12/01 00:55:32;;;;;;;;;;;;;;;;;;10495900;28;19912;-73
2020/12/01 01:00:33;;;;;;;;;;;;;;;;;;10496439;28;19924;-73
2020/12/01 01:05:33;;;;;;;;;;;;;;;;;;10496692;28;19919;-73
2020/12/01 01:10:34;;;;;;;;;;;;;;;;;;10496405;28;20035;-74
2020/12/01 01:15:35;;;;;;;;;;;;;;;;;;10496175;28;20011;-73
2020/12/01 01:20:36;;;;;;;;;;;;;;;;;;10495863;28;20416;-74
2020/12/01 01:25:37;;;;;;;;;;;;;;;;;;10494829;28;19912;-74
2020/12/01 01:30:39;;;;;;;;;;;;;;;;;;10495663;28;19913;-74
2020/12/01 01:35:40;;;;;;;;;;;;;;;;;;10495316;28;19912;-74
2020/12/01 01:40:40;;;;;;;;;;;;;;;;;;10494966;28;19921;-74
2020/12/01 01:45:41;;;;;;;;;;;;;;;;;;10494921;28;19912;-74
2020/12/01 01:50:42;;;;;;;;;;;;;;;;;;10494719;28;20403;-73
2020/12/01 01:55:43;;;;;;;;;;;;;;;;;;10493283;28;19921;-74
2020/12/01 02:05:51;;;;;;;;;;;;;;;;;;10494413;28;19912;-76
2020/12/01 02:10:52;;;;;;;;;;;;;;;;;;10494236;28;20332;-74
2020/12/01 02:15:53;;;;;;;;;;;;;;;;;;10494687;28;19912;-75
2020/12/01 02:20:53;;;;;;;;;;;;;;;;;;10489722;28;20260;-75
2020/12/01 02:25:54;;;;;;;;;;;;;;;;;;10493867;28;19916;-74
2020/12/01 02:30:55;;;;;;;;;;;;;;;;;;10493722;28;19912;-74
2020/12/01 02:35:56;;;;;;;;;;;;;;;;;;10493433;28;19916;-75
2020/12/01 02:40:57;;;;;;;;;;;;;;;;;;10493477;28;20058;-74
2020/12/01 02:45:58;;;;;;;;;;;;;;;;;;10493538;28;19920;-76
2020/12/01 02:50:59;;;;;;;;;;;;;;;;;;10493278;28;20291;-74
2020/12/01 02:56:00;;;;;;;;;;;;;;;;;;10493228;28;19920;-74
2020/12/01 03:01:01;;;;;;;;;;;;;;;;;;10492813;28;19921;-72
2020/12/01 03:06:02;;;;;;;;;;;;;;;;;;10493089;28;19916;-75
2020/12/01 03:11:03;;;;;;;;;;;;;;;;;;10492884;28;19917;-75
2020/12/01 03:16:08;;;;;;;;;;;;;;;;;;10492692;28;19920;-74
2020/12/01 03:21:09;;;;;;;;;;;;;;;;;;10492500;28;20011;-74
2020/12/01 03:26:09;;;;;;;;;;;;;;;;;;10492640;28;20344;-74
2020/12/01 03:31:10;;;;;;;;;;;;;;;;;;10492453;28;19957;-74
2020/12/01 03:36:11;;;;;;;;;;;;;;;;;;10492421;28;19912;-73
2020/12/01 03:41:12;;;;;;;;;;;;;;;;;;10492333;28;19921;-73
2020/12/01 03:46:13;;;;;;;;;;;;;;;;;;10492231;28;20585;-73
2020/12/01 03:51:14;;;;;;;;;;;;;;;;;;10500147;28;19927;-73
2020/12/01 03:56:15;;;;;;;;;;;;;;;;;;10499994;28;20003;-73
2020/12/01 04:01:16;;;;;;;;;;;;;;;;;;10511674;22;20391;-72
2020/12/01 04:06:17;;;;;;;;;;;;;;;;;;10499380;28;20025;-72
2020/12/01 04:11:18;;;;;;;;;;;;;;;;;;10498536;28;19912;-72
2020/12/01 04:16:19;;;;;;;;;;;;;;;;;;10498410;28;19919;-72
2020/12/01 04:21:20;;;;;;;;;;;;;;;;;;10498060;28;19974;-72
2020/12/01 04:26:21;;;;;;;;;;;;;;;;;;10497913;28;19920;-72
2020/12/01 04:31:22;;;;;;;;;;;;;;;;;;10497699;28;19912;-72
2020/12/01 04:36:22;;;;;;;;;;;;;;;;;;10497585;28;20316;-72
2020/12/01 04:41:23;;;;;;;;;;;;;;;;;;10497433;28;19932;-72
2020/12/01 04:46:24;;;;;;;;;;;;;;;;;;10497332;28;19999;-72
2020/12/01 04:51:25;;;;;;;;;;;;;;;;;;10497058;28;19912;-72
2020/12/01 04:56:26;;;;;;;;;;;;;;;;;;10496875;28;19970;-72
2020/12/01 05:01:27;;;;;;;;;;;;;;;;;;10496226;28;19921;-72
2020/12/01 05:06:56;;;;;;;;;;;;;;;;;;10496608;28;19938;-72
2020/12/01 05:11:53;;;;;;;;;;;;;;;;;;10497123;28;20411;-72
2020/12/01 05:16:54;;;;;;;;;;;;;;;;;;10515805;28;19955;-72
2020/12/01 05:21:55;;;;;;;;;;;;;;;;;;10495574;28;19920;-72
2020/12/01 05:26:56;;;;;;;;;;;;;;;;;;10495505;28;19966;-72
2020/12/01 05:31:57;;;;;;;;;;;;;;;;;;10495465;28;20395;-72
2020/12/01 05:36:58;;;;;;;;;;;;;;;;;;10495750;28;19919;-72
2020/12/01 05:41:59;;;;;;;;;;;;;;;;;;10494880;28;19924;-72
2020/12/01 05:47:00;;;;;;;;;;;;;;;;;;10494898;28;19917;-72
2020/12/01 05:52:00;;;;;;;;;;;;;;;;;;10494492;28;19920;-72
2020/12/01 05:57:03;;;;;;;;;;;;;;;;;;10494549;28;19955;-73
2020/12/01 06:02:04;;;;;;;;;;;;;;;;;;10493818;28;19925;-70
2020/12/01 06:07:05;;;;;;;;;;;;;;;;;;10493883;28;20419;-70
2020/12/01 06:12:06;;;;;;;;;;;;;;;;;;10493618;28;19916;-68
2020/12/01 06:17:07;;;;;;;;;;;;;;;;;;10493709;28;20449;-68
2020/12/01 06:22:08;;;;;;;;;;;;;;;;;;10493353;28;19921;-68
2020/12/01 06:27:09;;;;;;;;;;;;;;;;;;10493346;28;19912;-70
2020/12/01 06:32:10;;;;;;;;;;;;;;;;;;10491874;28;19955;-70
2020/12/01 06:37:10;;;;;;;;;;;;;;;;;;10492044;28;20365;-70
2020/12/01 06:42:11;;;;;;;;;;;;;;;;;;10491932;28;19921;-70
2020/12/01 06:47:12;;;;;;;;;;;;;;;;;;10493406;28;19913;-70
2020/12/01 06:52:13;;;;;;;;;;;;;;;;;;10492282;28;19917;-70
2020/12/01 06:57:14;;;;;;;;;;;;;;;;;;10492831;28;19927;-70
2020/12/01 07:02:15;;;;;;;;;;;;;;;;;;10492031;28;20334;-70
2020/12/01 07:07:16;;;;;;;;;;;;;;;;;;10492851;28;19995;-70
2020/12/01 07:12:17;;;;;;;;;;;;;;;;;;10491970;28;19944;-70
2020/12/01 07:17:18;;;;;;;;;;;;;;;;;;10491972;28;20347;-70
2020/12/01 07:22:18;;;;;;;;;;;;;;;;;;10493378;28;19921;-70
2020/12/01 07:27:19;;;;;;;;;;;;;;;;;;10499753;28;19916;-70
2020/12/01 07:32:21;;;;;;;;;;;;;;;;;;10499355;28;19958;-70
2020/12/01 07:37:22;;;;;;;;;;;;;;;;;;10498002;28;19913;-70
2020/12/01 07:42:23;;;;;;;;;;;;;;;;;;10498997;28;19920;-70
2020/12/01 07:47:24;;;;;;;;;;;;;;;;;;10498922;28;19923;-70
2020/12/01 07:52:25;;;;;;;;;;;;;;;;;;10498457;28;19995;-70
2020/12/01 07:57:25;;;;;;;;;;;;;;;;;;10498753;28;19912;-71
2020/12/01 08:02:26;;;;;;;;;;;;;;;;;;10498378;28;20011;-71
2020/12/01 08:07:27;;;;;;;;;;;;;;;;;;10478436;28;19913;-71
2020/12/01 08:12:28;;;;;;;;;;;;;;;;;;10477484;28;19919;-70
2020/12/01 08:17:29;;;;;;;;;;;;;;;;;;10477354;28;20276;-70
2020/12/01 08:22:30;;;;;;;;;;;;;;;;;;10476890;28;19925;-71
2020/12/01 08:27:31;;;;;;;;;;;;;;;;;;10476829;28;19913;-70
2020/12/01 08:32:32;;;;;;;;;;;;;;;;;;10475062;28;20328;-71
2020/12/01 08:37:32;;;;;;;;;;;;;;;;;;10476309;28;19935;-71
2020/12/01 08:42:33;;;;;;;;;;;;;;;;;;10475900;28;19932;-70
2020/12/01 08:47:34;;;;;;;;;;;;;;;;;;10476569;28;20006;-70
2020/12/01 08:52:35;;;;;;;;;;;;;;;;;;10476415;28;20519;-71
2020/12/01 08:57:37;;;;;;;;;;;;;;;;;;10475866;28;20046;-71
2020/12/01 09:02:38;;;;;;;;;;;;;;;;;;10496297;28;20384;-71
2020/12/01 09:07:42;;;;;;;;;;;;;;;;;;10497082;28;19912;-71
2020/12/01 09:12:56;;;;;;;;;;;;;;;;;;10475626;28;20403;-71
2020/12/01 09:18:31;;;;;;;;;;;;;;;;;;10491526;28;20355;-71
2020/12/01 09:23:35;;;;;;;;;;;;;;;;;;10488177;28;20145;-70
2020/12/01 09:28:36;;;;;;;;;;;;;;;;;;10495125;28;20288;-70
2020/12/01 09:33:37;;;;;;;;;;;;;;;;;;10495312;28;19913;-71
2020/12/01 09:38:38;;;;;;;;;;;;;;;;;;10495184;28;19912;-70
2020/12/01 09:43:50;;;;;;;;;;;;;;;;;;10494628;28;19974;-70
2020/12/01 09:48:51;;;;;;;;;;;;;;;;;;10494961;28;19912;-71
2020/12/01 10:25:43;;;;;;;;;;;;;;;;;;10493709;28;20361;-71
2020/12/01 10:31:47;;;;;;;;;;;;;;;;;;10473101;28;19913;-71
2020/12/01 10:35:59;;;;;;;;;;;;;;;;;;10493314;28;20383;-71
2020/12/01 10:41:00;;;;;;;;;;;;;;;;;;10493316;28;19931;-71
2020/12/01 10:46:00;;;;;;;;;;;;;;;;;;10493087;28;19916;-71
2020/12/01 10:51:01;;;;;;;;;;;;;;;;;;10493418;28;19919;-71
2020/12/01 10:56:02;;;;;;;;;;;;;;;;;;10494403;28;20391;-70
2020/12/01 11:01:03;;;;;;;;;;;;;;;;;;10500608;28;19925;-70
2020/12/01 11:06:04;;;;;;;;;;;;;;;;;;10501584;28;20026;-71
2020/12/01 11:11:05;;;;;;;;;;;;;;;;;;10501201;28;20427;-71
2020/12/01 11:16:06;;;;;;;;;;;;;;;;;;10500785;28;19912;-71
2020/12/01 11:21:07;;;;;;;;;;;;;;;;;;10499676;28;19973;-71
2020/12/01 11:26:08;;;;;;;;;;;;;;;;;;10500587;28;19913;-71
2020/12/01 11:31:08;;;;;;;;;;;;;;;;;;10499760;28;20283;-71
2020/12/01 11:36:09;;;;;;;;;;;;;;;;;;10499705;28;19917;-70
2020/12/01 11:41:11;;;;;;;;;;;;;;;;;;10499812;28;19927;-71
2020/12/01 11:46:12;;;;;;;;;;;;;;;;;;10500323;28;19967;-70
2020/12/01 11:51:13;;;;;;;;;;;;;;;;;;10499503;28;20742;-71
2020/12/01 11:56:14;;;;;;;;;;;;;;;;;;10499605;28;19917;-72
2020/12/01 12:01:15;;;;;;;;;;;;;;;;;;10499064;28;19971;-72
2020/12/01 12:06:17;;;;;;;;;;;;;;;;;;10499803;28;19912;-71
2020/12/01 12:11:17;;;;;;;;;;;;;;;;;;10498009;28;19912;-71
2020/12/01 12:16:18;;;;;;;;;;;;;;;;;;10498821;28;19913;-72
2020/12/01 12:21:19;;;;;;;;;;;;;;;;;;10498241;28;20352;-72
2020/12/01 12:26:20;;;;;;;;;;;;;;;;;;10498134;28;19924;-72
2020/12/01 12:31:21;;;;;;;;;;;;;;;;;;10498128;28;20308;-71
2020/12/01 12:36:23;;;;;;;;;;;;;;;;;;10498065;28;19913;-71
2020/12/01 12:41:24;;;;;;;;;;;;;;;;;;10496730;28;19970;-71
2020/12/01 12:46:24;;;;;;;;;;;;;;;;;;10494235;28;19913;-72
2020/12/01 12:51:25;;;;;;;;;;;;;;;;;;10492912;28;19912;-71
2020/12/01 12:56:26;;;;;;;;;;;;;;;;;;10493303;28;19941;-74
2020/12/01 13:01:27;;;;;;;;;;;;;;;;;;10494075;28;19987;-74
2020/12/01 13:06:28;;;;;;;;;;;;;;;;;;10496246;28;20333;-73
2020/12/01 13:11:29;;;;;;;;;;;;;;;;;;10495879;28;19913;-73
2020/12/01 13:16:30;;;;;;;;;;;;;;;;;;10495680;28;19912;-70
2020/12/01 13:21:31;;;;;;;;;;;;;;;;;;10495185;28;19921;-73
2020/12/01 13:26:32;;;;;;;;;;;;;;;;;;10495348;28;19997;-73
2020/12/01 13:31:33;;;;;;;;;;;;;;;;;;10495071;28;19919;-72
2020/12/01 13:36:33;;;;;;;;;;;;;;;;;;10495327;28;19917;-71
2020/12/01 13:41:34;;;;;;;;;;;;;;;;;;10495117;28;19924;-72
2020/12/01 13:46:35;;;;;;;;;;;;;;;;;;10495041;28;20435;-72
2020/12/01 13:51:36;;;;;;;;;;;;;;;;;;10495461;28;19912;-72
2020/12/01 13:56:37;;;;;;;;;;;;;;;;;;10494325;28;19912;-72
2020/12/01 14:01:38;;;;;;;;;;;;;;;;;;10493984;28;19927;-72
2020/12/01 14:06:39;;;;;;;;;;;;;;;;;;10492363;28;20003;-72
2020/12/01 14:11:40;;;;;;;;;;;;;;;;;;10493651;28;19916;-72
2020/12/01 14:16:41;;;;;;;;;;;;;;;;;;10493576;28;20434;-72
2020/12/01 14:21:41;;;;;;;;;;;;;;;;;;10493167;28;19945;-72
2020/12/01 14:26:42;;;;;;;;;;;;;;;;;;10493672;28;19935;-72
2020/12/01 14:31:43;;;;;;;;;;;;;;;;;;10492552;28;19981;-72
2020/12/01 14:36:45;;;;;;;;;;;;;;;;;;10493554;28;20019;-72
2020/12/01 14:41:46;;;;;;;;;;;;;;;;;;10493216;28;20331;-72
2020/12/01 14:46:49;;;;;;;;;;;;;;;;;;10492395;28;20480;-72
2020/12/01 14:51:50;;;;;;;;;;;;;;;;;;10493288;28;19913;-72
2020/12/01 14:56:51;;;;;;;;;;;;;;;;;;10492852;28;19916;-72
2020/12/01 15:01:52;;;;;;;;;;;;;;;;;;10492848;28;19920;-72
2020/12/01 15:06:53;;;;;;;;;;;;;;;;;;10492955;28;19944;-72
2020/12/01 15:11:54;;;;;;;;;;;;;;;;;;10472709;28;19973;-72
2020/12/01 15:16:54;;;;;;;;;;;;;;;;;;10471990;28;20353;-72
2020/12/01 15:21:55;;;;;;;;;;;;;;;;;;10488436;28;19970;-72
2020/12/01 15:26:56;;;;;;;;;;;;;;;;;;10472227;28;19917;-72
2020/12/01 15:31:57;;;;;;;;;;;;;;;;;;10471726;28;20311;-72
2020/12/01 15:36:58;;;;;;;;;;;;;;;;;;10471525;28;19917;-73
2020/12/01 15:41:59;;;;;;;;;;;;;;;;;;10471869;28;19920;-75
2020/12/01 15:47:00;;;;;;;;;;;;;;;;;;10479336;28;19978;-74
2020/12/01 15:52:01;;;;;;;;;;;;;;;;;;10479158;28;19917;-74
2020/12/01 15:57:02;;;;;;;;;;;;;;;;;;10478867;28;19935;-75
2020/12/01 16:02:02;;;;;;;;;;;;;;;;;;10479141;28;19927;-74
2020/12/01 16:07:03;;;;;;;;;;;;;;;;;;10478781;28;20411;-74
2020/12/01 16:12:04;;;;;;;;;;;;;;;;;;10494597;28;19944;-76
2020/12/01 16:17:05;;;;;;;;;;;;;;;;;;10496972;28;19920;-75
2020/12/01 16:22:06;;;;;;;;;;;;;;;;;;10498416;28;19928;-75
2020/12/01 16:27:07;;;;;;;;;;;;;;;;;;10499329;28;19920;-75
2020/12/01 16:32:08;;;;;;;;;;;;;;;;;;10498207;28;20388;-74
2020/12/01 16:37:09;;;;;;;;;;;;;;;;;;10494805;28;19951;-74
2020/12/01 16:42:09;;;;;;;;;;;;;;;;;;10497874;28;19966;-75
2020/12/01 16:47:10;;;;;;;;;;;;;;;;;;10498114;28;19981;-76
2020/12/01 16:52:11;;;;;;;;;;;;;;;;;;10497750;28;19936;-75
2020/12/01 16:57:12;;;;;;;;;;;;;;;;;;10476964;28;19912;-75
2020/12/01 17:02:13;;;;;;;;;;;;;;;;;;10476450;28;19967;-76
2020/12/01 17:07:14;;;;;;;;;;;;;;;;;;10476625;28;19916;-75
2020/12/01 17:12:15;;;;;;;;;;;;;;;;;;10476359;28;20387;-74
2020/12/01 17:17:16;;;;;;;;;;;;;;;;;;10475760;28;19913;-75
2020/12/01 17:22:17;;;;;;;;;;;;;;;;;;10475835;28;19928;-75
2020/12/01 17:27:17;;;;;;;;;;;;;;;;;;10520710;28;19927;-74
2020/12/01 17:32:18;;;;;;;;;;;;;;;;;;10496248;28;19913;-75
2020/12/01 17:37:19;;;;;;;;;;;;;;;;;;10495958;28;20053;-74
2020/12/01 17:42:20;;;;;;;;;;;;;;;;;;10491723;28;20422;-70
2020/12/01 17:47:21;;;;;;;;;;;;;;;;;;10494517;28;20304;-72
2020/12/01 17:52:22;;;;;;;;;;;;;;;;;;10494596;28;19912;-72
2020/12/01 17:57:23;;;;;;;;;;;;;;;;;;10494349;28;19975;-71
2020/12/01 18:02:24;;;;;;;;;;;;;;;;;;10493534;28;19928;-72
2020/12/01 18:07:25;;;;;;;;;;;;;;;;;;10492633;28;19913;-72
2020/12/01 18:12:25;;;;;;;;;;;;;;;;;;10492764;28;19935;-72
2020/12/01 18:17:27;;;;;;;;;;;;;;;;;;10491105;28;20261;-72
2020/12/01 18:22:27;;;;;;;;;;;;;;;;;;10489809;28;20385;-72
2020/12/01 18:27:29;;;;;;;;;;;;;;;;;;10491002;28;20003;-72
2020/12/01 18:32:29;;;;;;;;;;;;;;;;;;10492597;28;20058;-73
2020/12/01 18:37:30;;;;;;;;;;;;;;;;;;10493623;28;20007;-72
2020/12/01 18:42:31;;;;;;;;;;;;;;;;;;10491454;28;19925;-72
2020/12/01 18:47:32;;;;;;;;;;;;;;;;;;10489986;28;19916;-72
2020/12/01 18:52:33;;;;;;;;;;;;;;;;;;10490230;28;20003;-73
2020/12/01 18:57:34;;;;;;;;;;;;;;;;;;10490370;28;19916;-73
2020/12/01 19:02:35;;;;;;;;;;;;;;;;;;10490463;28;19947;-76
2020/12/01 19:07:36;;;;;;;;;;;;;;;;;;10488077;28;19921;-73
2020/12/01 19:12:37;;;;;;;;;;;;;;;;;;10490269;28;19912;-73
2020/12/01 19:17:37;;;;;;;;;;;;;;;;;;10492621;28;20330;-73
2020/12/01 19:22:38;;;;;;;;;;;;;;;;;;10498523;28;19921;-73
2020/12/01 19:27:39;;;;;;;;;;;;;;;;;;10498302;28;20288;-73
2020/12/01 19:32:40;;;;;;;;;;;;;;;;;;10498165;28;20037;-73
2020/12/01 19:37:41;;;;;;;;;;;;;;;;;;10497903;28;19912;-73
2020/12/01 19:42:42;;;;;;;;;;;;;;;;;;10495427;28;19927;-72
2020/12/01 19:47:43;;;;;;;;;;;;;;;;;;10496493;28;19986;-71
2020/12/01 19:52:44;;;;;;;;;;;;;;;;;;10496885;28;19916;-71
2020/12/01 19:57:45;;;;;;;;;;;;;;;;;;10496912;28;20373;-72
2020/12/01 20:02:46;;;;;;;;;;;;;;;;;;10498979;28;19920;-71
2020/12/01 20:07:46;;;;;;;;;;;;;;;;;;10499629;28;19935;-72
2020/12/01 20:12:47;;;;;;;;;;;;;;;;;;10516603;28;20438;-71
2020/12/01 20:17:48;;;;;;;;;;;;;;;;;;10498690;28;20369;-71
2020/12/01 20:22:49;;;;;;;;;;;;;;;;;;10498740;28;20053;-70
2020/12/01 20:27:50;;;;;;;;;;;;;;;;;;10498700;28;19913;-71
2020/12/01 20:32:51;;;;;;;;;;;;;;;;;;10498286;28;19951;-69
2020/12/01 20:37:55;;;;;;;;;;;;;;;;;;10498552;28;20315;-74
2020/12/01 20:42:56;;;;;;;;;;;;;;;;;;10498085;28;19920;-69
2020/12/01 20:47:56;;;;;;;;;;;;;;;;;;10497736;28;20015;-70
2020/12/01 20:52:57;;;;;;;;;;;;;;;;;;10497511;28;19956;-71
2020/12/01 20:58:00;;;;;;;;;;;;;;;;;;10493675;28;20007;-71
2020/12/01 21:03:01;;;;;;;;;;;;;;;;;;10476264;28;19925;-72
2020/12/01 21:08:02;;;;;;;;;;;;;;;;;;10477255;28;19958;-71
2020/12/01 21:13:03;;;;;;;;;;;;;;;;;;10477213;28;20041;-74
2020/12/01 21:18:04;;;;;;;;;;;;;;;;;;10476997;28;19974;-73
2020/12/01 21:23:05;;;;;;;;;;;;;;;;;;10476443;28;19920;-73
2020/12/01 21:28:07;;;;;;;;;;;;;;;;;;10476285;28;19913;-73
2020/12/01 21:33:08;;;;;;;;;;;;;;;;;;10476275;28;20273;-73
2020/12/01 21:38:09;;;;;;;;;;;;;;;;;;10475998;28;19913;-72
2020/12/01 21:43:10;;;;;;;;;;;;;;;;;;10474794;28;19921;-73
2020/12/01 21:48:11;;;;;;;;;;;;;;;;;;10475629;28;20365;-72
2020/12/01 21:53:12;;;;;;;;;;;;;;;;;;10520015;28;20356;-74
2020/12/01 21:58:12;;;;;;;;;;;;;;;;;;10495882;28;19947;-73
2020/12/01 22:03:13;;;;;;;;;;;;;;;;;;10495515;28;20015;-74
2020/12/01 22:08:14;;;;;;;;;;;;;;;;;;10495619;28;20445;-73
2020/12/01 22:13:15;;;;;;;;;;;;;;;;;;10495356;28;19943;-73
2020/12/01 22:18:16;;;;;;;;;;;;;;;;;;10495395;28;19919;-72
2020/12/01 22:23:17;;;;;;;;;;;;;;;;;;10492018;28;19920;-74
2020/12/01 22:28:18;;;;;;;;;;;;;;;;;;10491153;28;19974;-75
2020/12/01 22:33:19;;;;;;;;;;;;;;;;;;10490414;28;20452;-74
2020/12/01 22:38:20;;;;;;;;;;;;;;;;;;10488845;28;20368;-74
2020/12/01 22:43:20;;;;;;;;;;;;;;;;;;10490898;28;19920;-75
2020/12/01 22:48:21;;;;;;;;;;;;;;;;;;10491032;28;19920;-75
2020/12/01 22:53:22;;;;;;;;;;;;;;;;;;10490982;28;20373;-75
2020/12/01 22:58:23;;;;;;;;;;;;;;;;;;10491056;28;19916;-75
2020/12/01 23:03:24;;;;;;;;;;;;;;;;;;10490525;28;20037;-74
2020/12/01 23:08:25;;;;;;;;;;;;;;;;;;10490622;28;20299;-74
2020/12/01 23:13:26;;;;;;;;;;;;;;;;;;10490573;28;19940;-74
2020/12/01 23:18:27;;;;;;;;;;;;;;;;;;10488204;28;19924;-75
2020/12/01 23:23:28;;;;;;;;;;;;;;;;;;10492830;28;19974;-75
2020/12/01 23:28:29;;;;;;;;;;;;;;;;;;10489162;28;20387;-75
2020/12/01 23:33:30;;;;;;;;;;;;;;;;;;10493217;28;19913;-76
2020/12/01 23:38:30;;;;;;;;;;;;;;;;;;10493037;28;20390;-75
2020/12/01 23:43:31;;;;;;;;;;;;;;;;;;10493073;28;19926;-75
2020/12/01 23:48:32;;;;;;;;;;;;;;;;;;10492857;28;19913;-75
2020/12/01 23:53:33;;;;;;;;;;;;;;;;;;10492400;28;20291;-75
2020/12/01 23:58:34;;;;;;;;;;;;;;;;;;10492753;28;19924;-75
